Bay Bridge — 3FCS5 — position and weather

sailwx.info

Track history (hours):
 
Tides and Currents Weather Stations Pressure Air Temp Water Temp Dewpoint Dewpoint Depression Visibility Wind Speed Wind Dir Waves Ship Positions

Bay Bridge

Last reported at 2014-Aug-30 03:32 UTC. Time now 2014-Aug-30 04:31 UTC.
Position N 33°45' W 118°12'.

Length 267 m; draft 11.9 m.

Type: Ship (hazmat cat A). MMSI: 354120000.

Date/timePositionNaut miles runAvg speedWind from/ knotsBaromVisibWave heightAir tempDewpointWater temp
2014-Aug-30 03:32N 33°45' W 118°12'0 0.0
2014-Aug-30 02:32N 33°45' W 118°12'0 0.0
2014-Aug-30 01:32N 33°45' W 118°12'0 0.0
2014-Aug-30 00:25N 33°45' W 118°12'0 0.0
2014-Aug-29 23:32N 33°45' W 118°12'0 0.0
2014-Aug-29 22:32N 33°45' W 118°12'0 0.0
2014-Aug-29 21:32N 33°45' W 118°12'0 0.0
2014-Aug-29 20:32N 33°45' W 118°12'0 0.1
2014-Aug-29 19:32N 33°45' W 118°12'0 0.0
2014-Aug-29 18:32N 33°45' W 118°12'0 0.0
2014-Aug-29 17:29N 33°45' W 118°12'0 0.0
2014-Aug-29 16:31N 33°45' W 118°12'0 0.0
2014-Aug-29 15:32N 33°45' W 118°12'0 0.0
2014-Aug-29 14:31N 33°45' W 118°12'0 0.0
2014-Aug-29 13:31N 33°45' W 118°12'0 0.0
2014-Aug-29 12:31N 33°45' W 118°12'0 0.0
2014-Aug-29 11:28N 33°45' W 118°12'0 0.1
2014-Aug-29 10:32N 33°45' W 118°12'0 0.1
2014-Aug-29 09:32N 33°45' W 118°12'0 0.0
2014-Aug-29 08:31N 33°45' W 118°12'0 0.0
2014-Aug-29 07:31N 33°45' W 118°12'0 0.0
2014-Aug-29 06:31N 33°45' W 118°12'0 0.0
2014-Aug-29 05:31N 33°45' W 118°12'0 0.0
2014-Aug-29 04:28N 33°45' W 118°12'0 0.1
2014-Aug-29 03:31N 33°45' W 118°12'0 0.0
2014-Aug-29 02:28N 33°45' W 118°12'0 0.0
2014-Aug-29 01:28N 33°45' W 118°12'0 0.0
2014-Aug-29 00:31N 33°45' W 118°12'0 0.0
2014-Aug-28 23:31N 33°45' W 118°12'0 0.0
2014-Aug-28 22:31N 33°45' W 118°12'0 0.0
2014-Aug-28 21:31N 33°45' W 118°12'0 0.0
2014-Aug-28 20:31N 33°45' W 118°12'0 0.0
2014-Aug-28 19:28N 33°45' W 118°12'0 0.0
2014-Aug-28 18:31N 33°45' W 118°12'0 0.0
2014-Aug-28 17:19N 33°45' W 118°12'0 0.1
2014-Aug-28 16:31N 33°45' W 118°12'0 0.1
2014-Aug-28 15:31N 33°45' W 118°12'0 0.0
2014-Aug-28 14:31N 33°45' W 118°12'0 0.0
2014-Aug-28 13:28N 33°45' W 118°12'0 0.0
2014-Aug-28 12:31N 33°45' W 118°12'0 0.0
2014-Aug-28 11:31N 33°45' W 118°12'3 2.7
2014-Aug-28 10:33N 33°42' W 118°11'8 8.0
2014-Aug-28 09:33N 33°36' W 118°17'10 9.6
2014-Aug-28 08:33N 33°39' W 118°28'1010.1
2014-Aug-28 07:33N 33°44' W 118°38'1010.1
2014-Aug-28 06:33N 33°49' W 118°49'1010.1
2014-Aug-28 05:33N 33°54' W 118°60'9 9.5
2014-Aug-28 04:33N 33°59' W 119°09'1110.9
2014-Aug-28 03:34N 34°04' W 119°22'1211.7
2014-Aug-28 02:33N 34°07' W 119°35'1212.2
2014-Aug-28 01:33N 34°10' W 119°49'1212.1
2014-Aug-28 00:33N 34°13' W 120°03'1212.2
2014-Aug-27 23:33N 34°16' W 120°18'1212.4
2014-Aug-27 22:33N 34°20' W 120°32'1413.7
2014-Aug-27 21:33N 34°24' W 120°48'1918.1
2014-Aug-27 20:31N 34°33' W 121°08'2018.3
2014-Aug-27 19:27N 34°44' W 121°27'1618.0
2014-Aug-27 18:33N 34°54' W 121°43'1918.4
2014-Aug-27 17:31N 35°05' W 122°02'1718.0
2014-Aug-27 16:33N 35°15' W 122°19'15419.0
2014-Aug-27 08:25N 36°40' W 124°58'2019.0
2014-Aug-27 07:21N 36°51' W 125°20'3618.6
2014-Aug-27 05:25N 37°10' W 125°58'2418.9
2014-Aug-27 04:10N 37°23' W 126°23'1419.4
2014-Aug-27 03:25N 37°31' W 126°38'2019.0
2014-Aug-27 02:23N 37°41' W 126°59'1619.1
2014-Aug-27 01:33N 37°50' W 127°16'  
Track history (hours):
 
Tides and Currents Weather Stations Pressure Air Temp Water Temp Dewpoint Dewpoint Depression Visibility Wind Speed Wind Dir Waves Ship Positions

Bay Bridge

Last reported at 2014-Aug-30 03:32 UTC. Time now 2014-Aug-30 04:31 UTC.
Position N 33°45' W 118°12'.

Length 267 m; draft 11.9 m.

Type: Ship (hazmat cat A). MMSI: 354120000.

Date/timePositionNaut miles runAvg speedWind from/ knotsBaromVisibWave heightAir tempDewpointWater temp
2014-Aug-30 03:32N 33°45' W 118°12'0 0.0
2014-Aug-30 02:32N 33°45' W 118°12'0 0.0
2014-Aug-30 01:32N 33°45' W 118°12'0 0.0
2014-Aug-30 00:25N 33°45' W 118°12'0 0.0
2014-Aug-29 23:32N 33°45' W 118°12'0 0.0
2014-Aug-29 22:32N 33°45' W 118°12'0 0.0
2014-Aug-29 21:32N 33°45' W 118°12'0 0.0
2014-Aug-29 20:32N 33°45' W 118°12'0 0.1
2014-Aug-29 19:32N 33°45' W 118°12'0 0.0
2014-Aug-29 18:32N 33°45' W 118°12'0 0.0
2014-Aug-29 17:29N 33°45' W 118°12'0 0.0
2014-Aug-29 16:31N 33°45' W 118°12'0 0.0
2014-Aug-29 15:32N 33°45' W 118°12'0 0.0
2014-Aug-29 14:31N 33°45' W 118°12'0 0.0
2014-Aug-29 13:31N 33°45' W 118°12'0 0.0
2014-Aug-29 12:31N 33°45' W 118°12'0 0.0
2014-Aug-29 11:28N 33°45' W 118°12'0 0.1
2014-Aug-29 10:32N 33°45' W 118°12'0 0.1
2014-Aug-29 09:32N 33°45' W 118°12'0 0.0
2014-Aug-29 08:31N 33°45' W 118°12'0 0.0
2014-Aug-29 07:31N 33°45' W 118°12'0 0.0
2014-Aug-29 06:31N 33°45' W 118°12'0 0.0
2014-Aug-29 05:31N 33°45' W 118°12'0 0.0
2014-Aug-29 04:28N 33°45' W 118°12'0 0.1
2014-Aug-29 03:31N 33°45' W 118°12'0 0.0
2014-Aug-29 02:28N 33°45' W 118°12'0 0.0
2014-Aug-29 01:28N 33°45' W 118°12'0 0.0
2014-Aug-29 00:31N 33°45' W 118°12'0 0.0
2014-Aug-28 23:31N 33°45' W 118°12'0 0.0
2014-Aug-28 22:31N 33°45' W 118°12'0 0.0
2014-Aug-28 21:31N 33°45' W 118°12'0 0.0
2014-Aug-28 20:31N 33°45' W 118°12'0 0.0
2014-Aug-28 19:28N 33°45' W 118°12'0 0.0
2014-Aug-28 18:31N 33°45' W 118°12'0 0.0
2014-Aug-28 17:19N 33°45' W 118°12'0 0.1
2014-Aug-28 16:31N 33°45' W 118°12'0 0.1
2014-Aug-28 15:31N 33°45' W 118°12'0 0.0
2014-Aug-28 14:31N 33°45' W 118°12'0 0.0
2014-Aug-28 13:28N 33°45' W 118°12'0 0.0
2014-Aug-28 12:31N 33°45' W 118°12'0 0.0
2014-Aug-28 11:31N 33°45' W 118°12'3 2.7
2014-Aug-28 10:33N 33°42' W 118°11'8 8.0
2014-Aug-28 09:33N 33°36' W 118°17'10 9.6
2014-Aug-28 08:33N 33°39' W 118°28'1010.1
2014-Aug-28 07:33N 33°44' W 118°38'1010.1
2014-Aug-28 06:33N 33°49' W 118°49'1010.1
2014-Aug-28 05:33N 33°54' W 118°60'9 9.5
2014-Aug-28 04:33N 33°59' W 119°09'1110.9
2014-Aug-28 03:34N 34°04' W 119°22'1211.7
2014-Aug-28 02:33N 34°07' W 119°35'1212.2
2014-Aug-28 01:33N 34°10' W 119°49'1212.1
2014-Aug-28 00:33N 34°13' W 120°03'1212.2
2014-Aug-27 23:33N 34°16' W 120°18'1212.4
2014-Aug-27 22:33N 34°20' W 120°32'1413.7
2014-Aug-27 21:33N 34°24' W 120°48'1918.1
2014-Aug-27 20:31N 34°33' W 121°08'2018.3
2014-Aug-27 19:27N 34°44' W 121°27'1618.0
2014-Aug-27 18:33N 34°54' W 121°43'1918.4
2014-Aug-27 17:31N 35°05' W 122°02'1718.0
2014-Aug-27 16:33N 35°15' W 122°19'15419.0
2014-Aug-27 08:25N 36°40' W 124°58'2019.0
2014-Aug-27 07:21N 36°51' W 125°20'3618.6
2014-Aug-27 05:25N 37°10' W 125°58'2418.9
2014-Aug-27 04:10N 37°23' W 126°23'1419.4
2014-Aug-27 03:25N 37°31' W 126°38'2019.0
2014-Aug-27 02:23N 37°41' W 126°59'1619.1
2014-Aug-27 01:33N 37°50' W 127°16'  

Dump ship's entire track history